หน้าหลัก
METAR-TAF:

METAR-TAF

ท่าอากาศยาน :

Visby, Gotland, สวีเดน

ละติจูด: 57-40N, ลองจิจูด: 018-21E, ความสูง: 51 ม.

การสังเกตสภาพอากาศปัจจุบัน

รายงานได้ทำขึ้นเมื่อ 34 นาทีที่แล้ว ณ เวลา 13:50 UTC
ลม 11 นอตจากตะวันตก/ตะวันตกเฉียงใต้
อุณหภูมิ 15°C
ความชื้น 63%
ความกดอากาศ 1015 hPa
ทัศนวิสัย 10 กม. หรือมากกว่า
ไม่มีเมฆต่ำกว่า 1,500 ม. และไม่มีเมฆคิวมูโลนิมบัส

METAR: ESSV 141350Z 24011KT CAVOK 15/08 Q1015

เวลา: 16:24 (14:24 UTC)

การพยากรณ์

รายงานได้ทำขึ้นเมื่อ 2 ชั่วโมงและ 54 นาทีที่แล้ว ณ เวลา 11:30 UTC
การพยากรณ์มีผลตั้งแต่วันที่ 14 ณ เวลา 12 UTC จนถึงวันที่ 14 ณ เวลา 20 UTC
ลม 9 นอตจากตะวันตก
ทัศนวิสัย 10 กม. หรือมากกว่า
ไม่มีเมฆต่ำกว่า 1,500 ม. และไม่มีเมฆคิวมูโลนิมบัส

TAF: ESSV 141130Z 1412/1420 26009KT CAVOK

สังเกตการณ์สภาพอากาศและพยากรณ์อากาศของสนามบินมากกว่า 4000 แห่ง (รายงาน METAR และ TAF).

สถานีที่ดูได้จะแสดงไว้ด้วยจุดสีเหลืองและสีแดงบนแผนที่.

เลื่อนเมาส์ไปเหนือจุดเพื่อดูชื่อสถานี.

แล้วคลิกเพื่อดูสังเกตการณ์และการพยากรณ์สภาพอากาศ.

ในการเปลี่ยนแผนที่: คลิกที่ปุ่มสีเขียวที่มีกากบาทสีดำเพื่อซูมเข้า; ที่ปุ่มสีเขียวที่มีขีดเพื่อซูมออก; หรือที่ลูกศรสีเขียวเพื่อไปยังแผนที่ที่อยู่ติดกัน.


METAR-TAF: